createdAt,value
2022-09-03T00:01:49.811Z,2.68
2022-09-03T00:04:16.401Z,2.72
2022-09-03T00:06:52.162Z,2.76
2022-09-03T00:09:18.559Z,2.52
2022-09-03T00:11:46.665Z,2.72
2022-09-03T00:14:13.082Z,2.54
2022-09-03T00:16:39.503Z,2.62
2022-09-03T00:19:05.892Z,2.80
2022-09-03T00:24:26.594Z,2.75
2022-09-03T00:26:52.992Z,2.79
2022-09-03T00:29:19.413Z,2.68
2022-09-03T00:31:45.951Z,2.73
2022-09-03T00:34:12.352Z,2.65
2022-09-03T00:36:38.719Z,2.67
2022-09-03T00:39:05.121Z,2.69
2022-09-03T00:41:31.563Z,2.63
2022-09-03T00:43:57.989Z,2.69
2022-09-03T00:46:24.429Z,2.50
2022-09-03T00:48:50.852Z,2.67
2022-09-03T00:51:18.557Z,2.69
2022-09-03T00:53:44.973Z,2.70
2022-09-03T00:56:11.435Z,2.63
2022-09-03T00:58:37.830Z,2.86
2022-09-03T01:01:04.272Z,2.86
2022-09-03T01:03:30.680Z,2.81
2022-09-03T01:06:01.423Z,2.94
2022-09-03T01:08:28.156Z,2.75
2022-09-03T01:10:54.531Z,2.88
2022-09-03T01:13:20.940Z,2.88
2022-09-03T01:15:47.372Z,2.80
2022-09-03T01:18:13.792Z,2.62
2022-09-03T01:20:40.206Z,2.78
2022-09-03T01:23:06.618Z,2.72
2022-09-03T01:25:33.013Z,2.86
2022-09-03T01:27:59.396Z,2.93
2022-09-03T01:30:25.806Z,3.04
2022-09-03T01:32:52.177Z,3.07
2022-09-03T01:35:18.564Z,3.16
2022-09-03T01:37:44.971Z,2.95
2022-09-03T01:40:12.824Z,3.09
2022-09-03T01:42:39.222Z,3.36
2022-09-03T01:45:05.627Z,3.31
2022-09-03T01:47:32.330Z,3.17
2022-09-03T01:49:58.740Z,3.08
2022-09-03T01:52:25.142Z,2.89
2022-09-03T01:54:51.621Z,2.92
2022-09-03T01:57:34.931Z,3.00
2022-09-03T02:00:02.999Z,3.17
2022-09-03T02:02:29.568Z,3.23
2022-09-03T02:04:55.995Z,3.05
2022-09-03T02:07:22.399Z,3.06
2022-09-03T02:09:48.784Z,3.12
2022-09-03T02:12:15.174Z,3.12
2022-09-03T02:14:41.591Z,3.29
2022-09-03T02:17:07.977Z,3.08
2022-09-03T02:19:34.351Z,3.27
2022-09-03T02:22:00.755Z,3.20
2022-09-03T02:24:27.136Z,3.07
2022-09-03T02:26:53.547Z,3.12
2022-09-03T02:29:19.970Z,2.96
2022-09-03T02:31:46.356Z,2.79
2022-09-03T02:34:13.011Z,2.97
2022-09-03T02:36:39.406Z,2.95
2022-09-03T02:39:05.788Z,3.09
2022-09-03T02:41:32.161Z,2.70
2022-09-03T02:43:58.596Z,2.55
2022-09-03T02:46:25.000Z,2.76
2022-09-03T02:48:51.422Z,2.80
2022-09-03T02:51:17.865Z,2.70
2022-09-03T02:53:44.255Z,2.73
2022-09-03T02:56:10.668Z,3.01
2022-09-03T02:58:37.060Z,3.04
2022-09-03T03:01:03.466Z,2.65
2022-09-03T03:03:29.940Z,2.60
2022-09-03T03:05:56.351Z,2.67
2022-09-03T03:08:22.864Z,2.47
2022-09-03T03:10:49.368Z,2.77
2022-09-03T03:13:15.772Z,2.75
2022-09-03T03:15:42.160Z,2.73
2022-09-03T03:18:08.589Z,2.84
2022-09-03T03:20:35.001Z,2.88
2022-09-03T03:23:01.480Z,2.80
2022-09-03T03:25:27.869Z,2.82
2022-09-03T03:27:54.278Z,2.55
2022-09-03T03:30:20.668Z,2.69
2022-09-03T03:32:47.135Z,2.46
2022-09-03T03:35:13.589Z,2.67
2022-09-03T03:37:39.972Z,2.67
2022-09-03T03:40:06.346Z,2.50
2022-09-03T03:42:32.773Z,2.62
2022-09-03T03:44:59.157Z,2.51
2022-09-03T03:47:25.548Z,2.54
2022-09-03T03:49:51.968Z,2.67
2022-09-03T03:52:18.372Z,2.60
2022-09-03T03:54:44.756Z,2.65
2022-09-03T03:57:11.504Z,2.40
2022-09-03T03:59:38.081Z,2.67
2022-09-03T04:02:04.504Z,2.41
2022-09-03T04:04:30.945Z,2.55
2022-09-03T04:06:57.345Z,2.62
2022-09-03T04:09:23.713Z,2.50
2022-09-03T04:11:50.107Z,2.38
2022-09-03T04:14:16.597Z,2.41
2022-09-03T04:16:43.269Z,2.36
2022-09-03T04:19:09.747Z,2.50
2022-09-03T04:21:36.205Z,2.47
2022-09-03T04:24:02.630Z,2.32
2022-09-03T04:26:29.029Z,2.38
2022-09-03T04:28:55.415Z,2.40
2022-09-03T04:31:21.831Z,2.31
2022-09-03T04:33:48.473Z,2.45
2022-09-03T04:36:14.870Z,2.33
2022-09-03T04:38:41.238Z,2.48
2022-09-03T04:41:07.694Z,2.48
2022-09-03T04:43:34.105Z,2.41
2022-09-03T04:46:00.554Z,2.51
2022-09-03T04:48:27.085Z,2.42
2022-09-03T04:50:53.500Z,2.28
2022-09-03T04:53:19.901Z,2.51
2022-09-03T04:55:46.294Z,2.67
2022-09-03T04:58:12.684Z,2.48
2022-09-03T05:00:39.071Z,2.76
2022-09-03T05:03:05.465Z,2.46
2022-09-03T05:05:31.847Z,2.46
2022-09-03T05:07:58.231Z,2.34
2022-09-03T05:10:24.644Z,2.58
2022-09-03T05:12:51.028Z,2.49
2022-09-03T05:15:17.448Z,2.53
2022-09-03T05:17:43.862Z,2.25
2022-09-03T05:20:10.227Z,2.59
2022-09-03T05:22:36.598Z,2.56
2022-09-03T05:25:03.024Z,2.58
2022-09-03T05:27:29.408Z,2.44
2022-09-03T05:29:55.805Z,2.56
2022-09-03T05:32:22.289Z,2.84
2022-09-03T05:34:48.692Z,2.87
2022-09-03T05:37:15.096Z,2.65
2022-09-03T05:39:41.541Z,2.78
2022-09-03T05:42:08.002Z,2.77
2022-09-03T05:44:34.397Z,2.70
2022-09-03T05:47:00.794Z,2.82
2022-09-03T05:49:27.196Z,2.62
2022-09-03T05:51:53.579Z,2.69
2022-09-03T05:54:19.971Z,2.61
2022-09-03T05:56:46.362Z,2.37
2022-09-03T05:59:13.958Z,2.58
2022-09-03T06:01:40.518Z,2.65
2022-09-03T06:04:06.949Z,2.61
2022-09-03T06:06:33.370Z,2.88
2022-09-03T06:08:59.770Z,2.79
2022-09-03T06:11:26.163Z,2.87
2022-09-03T06:13:52.540Z,2.83
2022-09-03T06:16:18.996Z,2.74
2022-09-03T06:18:55.499Z,2.72
2022-09-03T06:21:21.913Z,2.78
2022-09-03T06:23:48.329Z,2.71
2022-09-03T06:26:14.761Z,2.70
2022-09-03T06:28:41.193Z,2.62
2022-09-03T06:31:07.640Z,2.50
2022-09-03T06:33:34.049Z,2.50
2022-09-03T06:36:00.915Z,2.59
2022-09-03T06:38:27.634Z,2.57
2022-09-03T06:40:54.021Z,2.46
2022-09-03T06:43:20.453Z,2.40
2022-09-03T06:45:46.917Z,2.53
2022-09-03T06:48:13.370Z,2.30
2022-09-03T06:50:39.783Z,2.31
2022-09-03T06:53:07.465Z,2.22
2022-09-03T06:55:33.839Z,2.07
2022-09-03T06:58:00.242Z,2.31
2022-09-03T07:00:26.693Z,2.23
2022-09-03T07:02:53.082Z,2.17
2022-09-03T07:05:19.557Z,2.25
2022-09-03T07:07:45.950Z,2.12
2022-09-03T07:10:12.359Z,2.19
2022-09-03T07:12:38.800Z,2.10
2022-09-03T07:15:05.241Z,2.27
2022-09-03T07:17:31.627Z,2.30
2022-09-03T07:19:58.060Z,2.20
2022-09-03T07:22:31.281Z,2.05
2022-09-03T07:24:59.542Z,1.99
2022-09-03T07:27:27.037Z,2.18
2022-09-03T07:29:53.460Z,1.95
2022-09-03T07:32:19.892Z,1.94
2022-09-03T07:34:46.308Z,1.79
2022-09-03T07:37:12.708Z,1.95
2022-09-03T07:39:39.170Z,1.96
2022-09-03T07:42:06.986Z,1.73
2022-09-03T07:44:33.360Z,1.77
2022-09-03T07:46:59.772Z,1.83
2022-09-03T07:49:26.223Z,1.87
2022-09-03T07:51:52.613Z,1.93
2022-09-03T07:54:19.016Z,1.90
2022-09-03T07:56:45.390Z,1.83
2022-09-03T07:59:11.767Z,1.84
2022-09-03T08:01:38.472Z,1.96
2022-09-03T08:04:09.753Z,1.71
2022-09-03T08:06:36.438Z,1.81
2022-09-03T08:09:05.340Z,1.86
2022-09-03T08:11:33.491Z,1.71
2022-09-03T08:13:59.877Z,1.84
2022-09-03T08:16:26.350Z,1.75
2022-09-03T08:18:52.827Z,1.74
2022-09-03T08:21:19.224Z,1.74
2022-09-03T08:23:45.632Z,1.97
2022-09-03T08:26:12.016Z,1.97
2022-09-03T08:28:38.410Z,1.77
2022-09-03T08:31:04.909Z,1.84
2022-09-03T08:33:31.368Z,2.32
2022-09-03T08:35:57.748Z,2.12
2022-09-03T08:38:24.333Z,2.12
2022-09-03T08:40:50.832Z,1.96
2022-09-03T08:43:17.222Z,2.18
2022-09-03T08:45:43.635Z,2.14
2022-09-03T08:48:10.039Z,2.20
2022-09-03T08:50:36.423Z,1.96
2022-09-03T08:53:02.839Z,2.16
2022-09-03T08:55:29.226Z,2.00
2022-09-03T08:57:55.603Z,2.03
2022-09-03T09:00:22.001Z,2.21
2022-09-03T09:02:48.466Z,2.22
2022-09-03T09:05:14.937Z,2.07
2022-09-03T09:07:41.363Z,2.17
2022-09-03T09:10:07.761Z,2.29
2022-09-03T09:12:41.343Z,2.19
2022-09-03T09:15:09.082Z,2.16
2022-09-03T09:17:35.484Z,2.06
2022-09-03T09:20:01.870Z,2.33
2022-09-03T09:22:28.283Z,2.28
2022-09-03T09:24:54.709Z,2.18
2022-09-03T09:27:21.085Z,1.87
2022-09-03T09:29:47.547Z,2.10
2022-09-03T09:32:14.301Z,2.11
2022-09-03T09:34:40.725Z,2.13
2022-09-03T09:37:07.144Z,2.19
2022-09-03T09:39:33.548Z,2.21
2022-09-03T09:41:59.967Z,2.29
2022-09-03T09:44:26.384Z,2.25
2022-09-03T09:46:54.834Z,2.26
2022-09-03T09:49:21.370Z,2.24
2022-09-03T09:51:47.792Z,2.47
2022-09-03T09:54:14.170Z,2.27
2022-09-03T09:56:40.549Z,2.51
2022-09-03T09:59:06.964Z,2.46
2022-09-03T10:01:33.428Z,2.41
2022-09-03T10:03:59.896Z,2.46
2022-09-03T10:06:26.309Z,2.00
2022-09-03T10:08:52.689Z,2.22
2022-09-03T10:11:19.086Z,2.36
2022-09-03T10:13:45.502Z,2.43
2022-09-03T10:16:11.914Z,2.74
2022-09-03T10:18:38.385Z,2.47
2022-09-03T10:21:04.935Z,2.24
2022-09-03T10:23:31.335Z,2.43
2022-09-03T10:25:57.725Z,2.44
2022-09-03T10:28:24.270Z,2.44
2022-09-03T10:30:50.806Z,2.37
2022-09-03T10:33:17.240Z,2.35
2022-09-03T10:35:43.687Z,2.44
2022-09-03T10:38:10.133Z,2.28
2022-09-03T10:40:36.512Z,2.16
2022-09-03T10:43:02.932Z,2.38
2022-09-03T10:45:29.359Z,2.14
2022-09-03T10:47:56.568Z,2.16
2022-09-03T10:50:23.004Z,2.40
2022-09-03T10:52:49.404Z,2.62
2022-09-03T10:55:15.802Z,2.56
2022-09-03T10:57:42.231Z,2.41
2022-09-03T11:00:08.627Z,2.45
2022-09-03T11:02:35.024Z,2.34
2022-09-03T11:05:01.456Z,2.47
2022-09-03T11:07:27.864Z,2.77
2022-09-03T11:09:54.273Z,2.53
2022-09-03T11:12:20.670Z,2.32
2022-09-03T11:14:47.072Z,2.21
2022-09-03T11:17:13.456Z,2.41
2022-09-03T11:19:39.862Z,2.53
2022-09-03T11:22:06.266Z,2.28
2022-09-03T11:24:32.667Z,2.48
2022-09-03T11:26:59.128Z,2.33
2022-09-03T11:29:25.512Z,2.21
2022-09-03T11:31:51.893Z,2.16
2022-09-03T11:34:23.573Z,2.00
2022-09-03T11:36:58.753Z,2.39
2022-09-03T11:39:25.246Z,2.36
2022-09-03T11:41:51.656Z,2.25
2022-09-03T11:44:18.067Z,2.49
2022-09-03T11:46:44.498Z,2.41
2022-09-03T11:49:10.875Z,2.12
2022-09-03T11:51:37.269Z,2.12
2022-09-03T11:54:03.723Z,2.47
2022-09-03T11:56:30.154Z,2.28
2022-09-03T11:58:56.567Z,2.42
2022-09-03T12:01:22.959Z,2.00
2022-09-03T12:03:49.417Z,2.12
2022-09-03T12:06:15.805Z,2.16
2022-09-03T12:08:42.216Z,1.98
2022-09-03T12:11:08.606Z,2.17
2022-09-03T12:13:34.988Z,2.06
2022-09-03T12:16:01.409Z,2.10
2022-09-03T12:18:27.810Z,1.99
2022-09-03T12:20:54.225Z,2.12
2022-09-03T12:23:20.638Z,1.96
2022-09-03T12:25:47.029Z,1.95
2022-09-03T12:28:13.412Z,2.20
2022-09-03T12:30:39.888Z,2.26
2022-09-03T12:33:06.324Z,2.19
2022-09-03T12:38:19.154Z,1.91
2022-09-03T12:43:39.712Z,2.27
2022-09-03T12:46:10.856Z,2.30
2022-09-03T12:48:40.454Z,2.27
2022-09-03T12:53:53.496Z,2.55
2022-09-03T12:56:19.868Z,2.47
2022-09-03T12:58:46.260Z,2.57
2022-09-03T13:01:12.725Z,2.73
2022-09-03T13:03:39.234Z,2.42
2022-09-03T13:06:05.613Z,2.75
2022-09-03T13:08:32.016Z,2.66
2022-09-03T13:10:58.386Z,2.52
2022-09-03T13:13:24.844Z,2.76
2022-09-03T13:15:51.302Z,2.42
2022-09-03T13:18:17.727Z,2.55
2022-09-03T13:20:44.819Z,2.35
2022-09-03T13:23:11.237Z,2.67
2022-09-03T13:25:37.634Z,2.59
2022-09-03T13:28:04.439Z,2.57
2022-09-03T13:30:30.989Z,2.37
2022-09-03T13:32:57.439Z,2.39
2022-09-03T13:35:25.886Z,2.59
2022-09-03T13:37:52.311Z,2.49
2022-09-03T13:40:18.710Z,2.46
2022-09-03T13:42:45.110Z,2.45
2022-09-03T13:45:11.547Z,2.72
2022-09-03T13:47:37.933Z,2.50
2022-09-03T13:50:04.359Z,2.27
2022-09-03T13:52:30.840Z,2.26
2022-09-03T13:54:57.241Z,2.34
2022-09-03T13:57:23.632Z,2.37
2022-09-03T13:59:50.513Z,2.45
2022-09-03T14:02:16.991Z,2.23
2022-09-03T14:04:43.475Z,2.40
2022-09-03T14:07:09.881Z,2.44
2022-09-03T14:09:36.284Z,2.42
2022-09-03T14:12:02.675Z,2.33
2022-09-03T14:14:29.083Z,2.45
2022-09-03T14:16:56.207Z,2.70
2022-09-03T14:19:22.600Z,2.71
2022-09-03T14:21:48.992Z,2.42
2022-09-03T14:24:15.372Z,2.57
2022-09-03T14:26:41.773Z,2.10
2022-09-03T14:29:08.229Z,2.39
2022-09-03T14:31:34.723Z,2.59
2022-09-03T14:34:01.153Z,2.47
2022-09-03T14:36:27.675Z,2.60
2022-09-03T14:38:54.075Z,2.65
2022-09-03T14:41:21.695Z,2.59
2022-09-03T14:43:48.124Z,2.56
2022-09-03T14:46:15.986Z,2.48
2022-09-03T14:48:42.424Z,2.38
2022-09-03T14:51:08.838Z,2.66
2022-09-03T14:53:40.133Z,2.53
2022-09-03T14:56:09.234Z,2.73
2022-09-03T14:58:35.716Z,2.78
2022-09-03T15:01:03.292Z,2.68
2022-09-03T15:03:29.790Z,2.34
2022-09-03T15:05:56.261Z,2.38
2022-09-03T15:08:22.644Z,2.70
2022-09-03T15:10:51.180Z,2.53
2022-09-03T15:13:20.931Z,2.59
2022-09-03T15:15:47.942Z,2.35
2022-09-03T15:18:14.664Z,2.48
2022-09-03T15:20:41.075Z,2.48
2022-09-03T15:23:07.468Z,2.58
2022-09-03T15:25:33.850Z,2.46
2022-09-03T15:28:00.271Z,2.41
2022-09-03T15:30:26.670Z,2.42
2022-09-03T15:32:53.075Z,2.37
2022-09-03T15:35:19.517Z,2.31
2022-09-03T15:37:45.910Z,2.30
2022-09-03T15:40:12.275Z,2.42
2022-09-03T15:42:38.715Z,2.12
2022-09-03T15:45:05.096Z,2.38
2022-09-03T15:47:51.094Z,2.21
2022-09-03T15:50:17.874Z,2.02
2022-09-03T15:52:44.272Z,2.25
2022-09-03T15:55:10.674Z,2.31
2022-09-03T15:57:37.098Z,2.27
2022-09-03T16:00:03.484Z,2.36
2022-09-03T16:02:29.887Z,2.24
2022-09-03T16:04:56.299Z,2.17
2022-09-03T16:07:22.701Z,2.15
2022-09-03T16:10:07.607Z,2.26
2022-09-03T16:12:36.157Z,2.26
2022-09-03T16:15:02.555Z,2.22
2022-09-03T16:17:28.963Z,2.31
2022-09-03T16:19:55.412Z,2.03
2022-09-03T16:22:21.840Z,2.12
2022-09-03T16:24:48.595Z,2.05
2022-09-03T16:27:15.007Z,2.11
2022-09-03T16:29:41.394Z,2.18
2022-09-03T16:32:07.799Z,2.14
2022-09-03T16:34:34.208Z,2.26
2022-09-03T16:37:00.668Z,2.10
2022-09-03T16:39:27.075Z,2.08
2022-09-03T16:41:54.651Z,2.17
2022-09-03T16:44:21.043Z,2.33
2022-09-03T16:46:47.426Z,2.12
2022-09-03T16:49:13.842Z,2.13
2022-09-03T16:51:40.255Z,2.05
2022-09-03T16:54:06.658Z,1.82
2022-09-03T16:56:33.183Z,2.20
2022-09-03T16:58:59.585Z,1.89
2022-09-03T17:01:26.048Z,1.77
2022-09-03T17:03:52.564Z,1.94
2022-09-03T17:06:18.962Z,1.94
2022-09-03T17:08:45.395Z,1.84
2022-09-03T17:11:11.792Z,1.95
2022-09-03T17:13:39.164Z,1.88
2022-09-03T17:16:05.595Z,1.78
2022-09-03T17:18:32.044Z,2.16
2022-09-03T17:20:58.440Z,1.74
2022-09-03T17:23:24.899Z,1.86
2022-09-03T17:25:51.344Z,1.93
2022-09-03T17:28:20.282Z,1.79
2022-09-03T17:30:50.611Z,1.92
2022-09-03T17:33:17.061Z,1.78
2022-09-03T17:35:43.511Z,2.06
2022-09-03T17:38:09.963Z,1.80
2022-09-03T17:40:36.361Z,1.89
2022-09-03T17:43:02.745Z,2.07
2022-09-03T17:45:29.145Z,1.89
2022-09-03T17:47:55.565Z,1.96
2022-09-03T17:50:21.949Z,1.72
2022-09-03T17:52:49.125Z,1.81
2022-09-03T17:55:15.555Z,1.97
2022-09-03T17:57:41.938Z,1.86
2022-09-03T18:00:08.336Z,1.98
2022-09-03T18:02:35.006Z,2.03
2022-09-03T18:05:01.820Z,1.99
2022-09-03T18:07:28.200Z,1.94
2022-09-03T18:09:54.617Z,2.14
2022-09-03T18:12:21.000Z,1.90
2022-09-03T18:14:47.430Z,2.00
2022-09-03T18:17:13.833Z,1.89
2022-09-03T18:19:40.247Z,1.82
2022-09-03T18:22:06.627Z,1.97
2022-09-03T18:24:33.023Z,1.97
2022-09-03T18:26:59.440Z,2.11
2022-09-03T18:29:25.832Z,2.00
2022-09-03T18:31:52.268Z,1.88
2022-09-03T18:34:18.649Z,2.06
2022-09-03T18:36:45.046Z,2.34
2022-09-03T18:39:11.498Z,2.00
2022-09-03T18:41:37.892Z,2.37
2022-09-03T18:44:04.281Z,1.98
2022-09-03T18:49:17.116Z,2.17
2022-09-03T18:51:43.621Z,2.30
2022-09-03T18:54:10.022Z,2.02
2022-09-03T18:56:36.416Z,1.86
2022-09-03T18:59:02.827Z,1.94
2022-09-03T19:01:29.297Z,1.97
2022-09-03T19:03:55.806Z,2.22
2022-09-03T19:06:22.357Z,2.08
2022-09-03T19:08:48.752Z,2.19
2022-09-03T19:11:15.142Z,2.08
2022-09-03T19:13:41.557Z,2.22
2022-09-03T19:16:07.960Z,2.11
2022-09-03T19:18:34.370Z,2.02
2022-09-03T19:21:00.784Z,2.35
2022-09-03T19:23:27.166Z,2.27
2022-09-03T19:25:53.552Z,2.30
2022-09-03T19:28:21.723Z,2.23
2022-09-03T19:30:50.468Z,2.10
2022-09-03T19:33:17.301Z,2.26
2022-09-03T19:35:43.727Z,2.04
2022-09-03T19:38:10.097Z,1.96
2022-09-03T19:40:36.485Z,2.19
2022-09-03T19:43:02.885Z,2.10
2022-09-03T19:45:29.257Z,2.52
2022-09-03T19:47:55.660Z,2.16
2022-09-03T19:50:23.706Z,1.98
2022-09-03T19:52:50.134Z,1.93
2022-09-03T19:55:16.529Z,2.14
2022-09-03T19:57:42.937Z,2.17
2022-09-03T20:00:09.309Z,2.25
2022-09-03T20:02:35.756Z,2.08
2022-09-03T20:05:02.195Z,2.14
2022-09-03T20:07:28.572Z,2.09
2022-09-03T20:09:55.004Z,2.20
2022-09-03T20:12:21.576Z,2.04
2022-09-03T20:14:48.006Z,2.00
2022-09-03T20:17:14.429Z,2.13
2022-09-03T20:19:40.878Z,2.15
2022-09-03T20:22:07.319Z,2.11
2022-09-03T20:24:33.687Z,2.09
2022-09-03T20:27:00.097Z,2.15
2022-09-03T20:29:26.495Z,1.91
2022-09-03T20:31:52.877Z,2.11
2022-09-03T20:34:19.312Z,2.24
2022-09-03T20:36:50.963Z,2.06
2022-09-03T20:39:17.759Z,1.90
2022-09-03T20:41:44.188Z,2.11
2022-09-03T20:44:10.586Z,2.10
2022-09-03T20:46:37.091Z,2.11
2022-09-03T20:49:03.520Z,2.09
2022-09-03T20:51:31.018Z,1.85
2022-09-03T20:53:57.411Z,1.94
2022-09-03T20:56:23.823Z,1.94
2022-09-03T20:58:50.236Z,1.88
2022-09-03T21:01:16.691Z,2.14
2022-09-03T21:03:43.118Z,1.97
2022-09-03T21:06:09.499Z,1.88
2022-09-03T21:08:35.928Z,1.81
2022-09-03T21:11:02.346Z,1.97
2022-09-03T21:13:28.761Z,1.58
2022-09-03T21:15:56.834Z,2.05
2022-09-03T21:18:23.359Z,1.91
2022-09-03T21:20:49.735Z,1.99
2022-09-03T21:23:16.365Z,1.98
2022-09-03T21:25:42.782Z,1.78
2022-09-03T21:28:09.706Z,2.04
2022-09-03T21:30:36.178Z,1.91
2022-09-03T21:33:02.604Z,1.89
2022-09-03T21:35:28.985Z,1.96
2022-09-03T21:37:55.362Z,1.81
2022-09-03T21:40:24.446Z,1.86
2022-09-03T21:42:51.680Z,1.91
2022-09-03T21:45:18.047Z,2.00
2022-09-03T21:47:44.469Z,1.91
2022-09-03T21:50:15.845Z,1.92
2022-09-03T21:52:43.159Z,1.87
2022-09-03T21:55:09.572Z,1.84
2022-09-03T21:57:36.025Z,2.01
2022-09-03T22:00:02.455Z,2.02
2022-09-03T22:02:28.913Z,1.67
2022-09-03T22:04:55.370Z,1.90
2022-09-03T22:07:21.777Z,1.95
2022-09-03T22:09:48.194Z,1.86
2022-09-03T22:12:14.578Z,1.99
2022-09-03T22:14:40.976Z,1.84
2022-09-03T22:17:07.511Z,1.86
2022-09-03T22:19:33.966Z,1.99
2022-09-03T22:22:00.356Z,1.78
2022-09-03T22:24:28.312Z,1.99
2022-09-03T22:26:54.701Z,1.72
2022-09-03T22:29:21.088Z,1.78
2022-09-03T22:31:47.875Z,1.71
2022-09-03T22:34:14.272Z,1.96
2022-09-03T22:36:40.685Z,1.87
2022-09-03T22:39:07.153Z,1.63
2022-09-03T22:41:33.549Z,1.88
2022-09-03T22:43:59.925Z,1.69
2022-09-03T22:46:26.405Z,1.80
2022-09-03T22:48:52.845Z,1.69
2022-09-03T22:51:21.784Z,1.67
2022-09-03T22:53:48.463Z,1.69
2022-09-03T22:56:14.850Z,1.77
2022-09-03T22:58:41.242Z,1.75
2022-09-03T23:01:07.724Z,1.71
2022-09-03T23:03:34.271Z,1.68
2022-09-03T23:06:00.981Z,1.70
2022-09-03T23:08:27.442Z,1.67
2022-09-03T23:10:54.119Z,1.67
2022-09-03T23:13:20.561Z,1.72
2022-09-03T23:15:47.020Z,1.72
2022-09-03T23:18:13.426Z,1.80
2022-09-03T23:20:39.796Z,1.68
2022-09-03T23:23:08.546Z,1.66
2022-09-03T23:25:35.012Z,1.90
2022-09-03T23:28:01.468Z,1.68
2022-09-03T23:30:27.906Z,1.56
2022-09-03T23:32:54.344Z,1.62
2022-09-03T23:35:20.736Z,1.83
2022-09-03T23:37:47.163Z,1.81
2022-09-03T23:40:13.573Z,1.65
2022-09-03T23:42:40.033Z,1.78
2022-09-03T23:45:06.501Z,1.71
2022-09-03T23:47:36.583Z,1.51
2022-09-03T23:50:02.987Z,1.69
2022-09-03T23:52:29.436Z,1.59
2022-09-03T23:54:55.835Z,1.52
2022-09-03T23:57:22.258Z,1.61
2022-09-03T23:59:48.666Z,1.71
